sensor_id;sensor_type;location;lat;lon;timestamp;P1;durP1;ratioP1;P2;durP2;ratioP2
43744;SDS011;29359;53.048;8.732;2023-12-29T00:00:57;5.28;;;1.30;;
43744;SDS011;29359;53.048;8.732;2023-12-29T00:02:59;7.00;;;1.50;;
43744;SDS011;29359;53.048;8.732;2023-12-29T00:05:01;7.28;;;1.42;;
43744;SDS011;29359;53.048;8.732;2023-12-29T00:07:03;4.15;;;1.52;;
43744;SDS011;29359;53.048;8.732;2023-12-29T00:09:05;10.85;;;1.95;;
43744;SDS011;29359;53.048;8.732;2023-12-29T00:11:06;6.22;;;1.48;;
43744;SDS011;29359;53.048;8.732;2023-12-29T00:13:08;8.10;;;1.63;;
43744;SDS011;29359;53.048;8.732;2023-12-29T00:15:10;9.32;;;2.05;;
43744;SDS011;29359;53.048;8.732;2023-12-29T00:17:12;6.25;;;1.75;;
43744;SDS011;29359;53.048;8.732;2023-12-29T00:19:14;8.07;;;1.35;;
43744;SDS011;29359;53.048;8.732;2023-12-29T00:21:16;6.93;;;1.40;;
43744;SDS011;29359;53.048;8.732;2023-12-29T00:23:21;4.47;;;1.60;;
43744;SDS011;29359;53.048;8.732;2023-12-29T00:25:22;4.13;;;1.25;;
43744;SDS011;29359;53.048;8.732;2023-12-29T00:27:24;4.93;;;1.83;;
43744;SDS011;29359;53.048;8.732;2023-12-29T00:29:26;4.63;;;1.38;;
43744;SDS011;29359;53.048;8.732;2023-12-29T00:31:29;4.95;;;1.40;;
43744;SDS011;29359;53.048;8.732;2023-12-29T00:33:31;5.30;;;1.40;;
43744;SDS011;29359;53.048;8.732;2023-12-29T00:35:36;9.52;;;1.45;;
43744;SDS011;29359;53.048;8.732;2023-12-29T00:37:39;8.90;;;1.45;;
43744;SDS011;29359;53.048;8.732;2023-12-29T00:39:41;6.78;;;1.42;;
43744;SDS011;29359;53.048;8.732;2023-12-29T00:41:43;6.95;;;1.90;;
43744;SDS011;29359;53.048;8.732;2023-12-29T00:43:45;10.27;;;1.98;;
43744;SDS011;29359;53.048;8.732;2023-12-29T00:45:47;8.75;;;2.08;;
43744;SDS011;29359;53.048;8.732;2023-12-29T00:47:49;7.00;;;1.77;;
43744;SDS011;29359;53.048;8.732;2023-12-29T00:49:53;7.38;;;1.40;;
43744;SDS011;29359;53.048;8.732;2023-12-29T00:51:55;6.60;;;1.60;;
43744;SDS011;29359;53.048;8.732;2023-12-29T00:53:56;5.05;;;1.70;;
43744;SDS011;29359;53.048;8.732;2023-12-29T00:55:59;7.53;;;1.60;;
43744;SDS011;29359;53.048;8.732;2023-12-29T00:58:01;5.97;;;1.45;;
43744;SDS011;29359;53.048;8.732;2023-12-29T01:00:03;8.82;;;1.60;;
43744;SDS011;29359;53.048;8.732;2023-12-29T01:02:07;5.03;;;1.48;;
43744;SDS011;29359;53.048;8.732;2023-12-29T01:04:09;4.05;;;1.55;;
43744;SDS011;29359;53.048;8.732;2023-12-29T01:06:11;5.38;;;1.20;;
43744;SDS011;29359;53.048;8.732;2023-12-29T01:08:12;8.07;;;1.42;;
43744;SDS011;29359;53.048;8.732;2023-12-29T01:10:14;8.88;;;1.63;;
43744;SDS011;29359;53.048;8.732;2023-12-29T01:12:16;3.50;;;1.10;;
43744;SDS011;29359;53.048;8.732;2023-12-29T01:14:18;6.53;;;1.60;;
43744;SDS011;29359;53.048;8.732;2023-12-29T01:16:20;4.07;;;1.40;;
43744;SDS011;29359;53.048;8.732;2023-12-29T01:18:22;7.95;;;1.83;;
43744;SDS011;29359;53.048;8.732;2023-12-29T01:20:23;4.85;;;1.65;;
43744;SDS011;29359;53.048;8.732;2023-12-29T01:22:25;5.97;;;1.33;;
43744;SDS011;29359;53.048;8.732;2023-12-29T01:24:27;7.03;;;1.23;;
43744;SDS011;29359;53.048;8.732;2023-12-29T01:26:42;5.63;;;1.45;;
43744;SDS011;29359;53.048;8.732;2023-12-29T01:28:44;5.43;;;1.38;;
43744;SDS011;29359;53.048;8.732;2023-12-29T01:30:46;5.97;;;1.33;;
43744;SDS011;29359;53.048;8.732;2023-12-29T01:32:48;4.18;;;1.15;;
43744;SDS011;29359;53.048;8.732;2023-12-29T01:34:49;7.70;;;1.48;;
43744;SDS011;29359;53.048;8.732;2023-12-29T01:36:51;6.28;;;1.70;;
43744;SDS011;29359;53.048;8.732;2023-12-29T01:38:53;7.38;;;1.27;;
43744;SDS011;29359;53.048;8.732;2023-12-29T01:40:55;5.80;;;1.40;;
43744;SDS011;29359;53.048;8.732;2023-12-29T01:42:57;3.60;;;1.25;;
43744;SDS011;29359;53.048;8.732;2023-12-29T01:44:59;5.70;;;1.20;;
43744;SDS011;29359;53.048;8.732;2023-12-29T01:47:01;6.68;;;1.02;;
43744;SDS011;29359;53.048;8.732;2023-12-29T01:49:06;6.82;;;1.10;;
43744;SDS011;29359;53.048;8.732;2023-12-29T01:51:09;5.85;;;1.27;;
43744;SDS011;29359;53.048;8.732;2023-12-29T01:53:10;6.25;;;1.30;;
43744;SDS011;29359;53.048;8.732;2023-12-29T01:55:14;9.90;;;1.45;;
43744;SDS011;29359;53.048;8.732;2023-12-29T01:57:18;5.07;;;1.00;;
43744;SDS011;29359;53.048;8.732;2023-12-29T01:59:21;3.78;;;1.17;;
43744;SDS011;29359;53.048;8.732;2023-12-29T02:01:27;4.85;;;0.95;;
43744;SDS011;29359;53.048;8.732;2023-12-29T02:03:29;5.72;;;1.00;;
43744;SDS011;29359;53.048;8.732;2023-12-29T02:05:31;7.38;;;1.10;;
43744;SDS011;29359;53.048;8.732;2023-12-29T02:07:36;5.20;;;1.08;;
43744;SDS011;29359;53.048;8.732;2023-12-29T02:09:38;8.38;;;1.40;;
43744;SDS011;29359;53.048;8.732;2023-12-29T02:11:40;5.88;;;1.52;;
43744;SDS011;29359;53.048;8.732;2023-12-29T02:13:42;5.05;;;1.15;;
43744;SDS011;29359;53.048;8.732;2023-12-29T02:15:44;4.88;;;1.35;;
43744;SDS011;29359;53.048;8.732;2023-12-29T02:17:51;4.90;;;1.33;;
43744;SDS011;29359;53.048;8.732;2023-12-29T02:20:01;6.65;;;1.42;;
43744;SDS011;29359;53.048;8.732;2023-12-29T02:22:03;4.38;;;1.17;;
43744;SDS011;29359;53.048;8.732;2023-12-29T02:24:05;8.38;;;1.70;;
43744;SDS011;29359;53.048;8.732;2023-12-29T02:26:09;5.30;;;1.50;;
43744;SDS011;29359;53.048;8.732;2023-12-29T02:28:19;6.53;;;1.67;;
43744;SDS011;29359;53.048;8.732;2023-12-29T02:30:33;7.68;;;1.63;;
43744;SDS011;29359;53.048;8.732;2023-12-29T02:32:44;8.75;;;1.85;;
43744;SDS011;29359;53.048;8.732;2023-12-29T02:34:48;8.80;;;1.50;;
43744;SDS011;29359;53.048;8.732;2023-12-29T02:36:52;8.02;;;1.55;;
43744;SDS011;29359;53.048;8.732;2023-12-29T02:38:55;6.72;;;1.83;;
43744;SDS011;29359;53.048;8.732;2023-12-29T02:40:57;9.50;;;1.40;;
43744;SDS011;29359;53.048;8.732;2023-12-29T02:42:59;6.85;;;1.70;;
43744;SDS011;29359;53.048;8.732;2023-12-29T02:45:02;6.10;;;1.40;;
43744;SDS011;29359;53.048;8.732;2023-12-29T02:47:04;7.28;;;1.63;;
43744;SDS011;29359;53.048;8.732;2023-12-29T02:49:06;5.32;;;1.15;;
43744;SDS011;29359;53.048;8.732;2023-12-29T02:51:13;4.57;;;1.50;;
43744;SDS011;29359;53.048;8.732;2023-12-29T02:53:14;7.00;;;1.20;;
43744;SDS011;29359;53.048;8.732;2023-12-29T02:55:16;10.15;;;1.85;;
43744;SDS011;29359;53.048;8.732;2023-12-29T02:57:18;5.90;;;1.30;;
43744;SDS011;29359;53.048;8.732;2023-12-29T02:59:20;10.45;;;1.70;;
43744;SDS011;29359;53.048;8.732;2023-12-29T03:01:22;10.65;;;1.88;;
43744;SDS011;29359;53.048;8.732;2023-12-29T03:03:23;9.25;;;1.75;;
43744;SDS011;29359;53.048;8.732;2023-12-29T03:05:25;7.38;;;2.10;;
43744;SDS011;29359;53.048;8.732;2023-12-29T03:07:27;3.33;;;1.20;;
43744;SDS011;29359;53.048;8.732;2023-12-29T03:09:29;7.25;;;1.63;;
43744;SDS011;29359;53.048;8.732;2023-12-29T03:11:31;9.52;;;1.80;;
43744;SDS011;29359;53.048;8.732;2023-12-29T03:13:33;6.22;;;1.40;;
43744;SDS011;29359;53.048;8.732;2023-12-29T03:15:35;5.75;;;1.52;;
43744;SDS011;29359;53.048;8.732;2023-12-29T03:17:37;8.15;;;1.83;;
43744;SDS011;29359;53.048;8.732;2023-12-29T03:19:39;6.78;;;1.25;;
43744;SDS011;29359;53.048;8.732;2023-12-29T03:21:40;4.82;;;1.27;;
43744;SDS011;29359;53.048;8.732;2023-12-29T03:23:43;7.30;;;1.77;;
43744;SDS011;29359;53.048;8.732;2023-12-29T03:25:45;4.95;;;1.88;;
43744;SDS011;29359;53.048;8.732;2023-12-29T03:27:47;8.93;;;2.05;;
43744;SDS011;29359;53.048;8.732;2023-12-29T03:29:49;6.10;;;1.40;;
43744;SDS011;29359;53.048;8.732;2023-12-29T03:31:50;7.32;;;1.67;;
43744;SDS011;29359;53.048;8.732;2023-12-29T03:33:52;8.15;;;1.60;;
43744;SDS011;29359;53.048;8.732;2023-12-29T03:35:54;6.38;;;1.50;;
43744;SDS011;29359;53.048;8.732;2023-12-29T03:37:56;6.25;;;1.40;;
43744;SDS011;29359;53.048;8.732;2023-12-29T03:39:58;6.55;;;1.58;;
43744;SDS011;29359;53.048;8.732;2023-12-29T03:42:00;6.80;;;1.55;;
43744;SDS011;29359;53.048;8.732;2023-12-29T03:44:03;7.78;;;1.58;;
43744;SDS011;29359;53.048;8.732;2023-12-29T03:46:14;9.32;;;2.25;;
43744;SDS011;29359;53.048;8.732;2023-12-29T03:48:20;5.43;;;1.20;;
43744;SDS011;29359;53.048;8.732;2023-12-29T03:50:22;10.52;;;2.40;;
43744;SDS011;29359;53.048;8.732;2023-12-29T03:52:24;6.65;;;2.08;;
43744;SDS011;29359;53.048;8.732;2023-12-29T03:54:26;7.63;;;1.20;;
43744;SDS011;29359;53.048;8.732;2023-12-29T03:56:27;8.60;;;1.85;;
43744;SDS011;29359;53.048;8.732;2023-12-29T03:58:29;8.80;;;1.35;;
43744;SDS011;29359;53.048;8.732;2023-12-29T04:00:31;4.32;;;1.48;;
43744;SDS011;29359;53.048;8.732;2023-12-29T04:02:33;7.43;;;1.25;;
43744;SDS011;29359;53.048;8.732;2023-12-29T04:04:38;8.65;;;1.48;;
43744;SDS011;29359;53.048;8.732;2023-12-29T04:06:40;7.22;;;1.10;;
43744;SDS011;29359;53.048;8.732;2023-12-29T04:08:42;4.65;;;1.42;;
43744;SDS011;29359;53.048;8.732;2023-12-29T04:10:44;3.13;;;1.27;;
43744;SDS011;29359;53.048;8.732;2023-12-29T04:12:46;6.25;;;1.30;;
43744;SDS011;29359;53.048;8.732;2023-12-29T04:14:48;8.48;;;1.30;;
43744;SDS011;29359;53.048;8.732;2023-12-29T04:16:49;8.95;;;1.88;;
43744;SDS011;29359;53.048;8.732;2023-12-29T04:18:51;5.85;;;1.55;;
43744;SDS011;29359;53.048;8.732;2023-12-29T04:20:53;6.07;;;1.50;;
43744;SDS011;29359;53.048;8.732;2023-12-29T04:22:55;7.40;;;1.27;;
43744;SDS011;29359;53.048;8.732;2023-12-29T04:24:57;5.28;;;1.30;;
43744;SDS011;29359;53.048;8.732;2023-12-29T04:26:59;4.63;;;1.35;;
43744;SDS011;29359;53.048;8.732;2023-12-29T04:29:00;8.57;;;1.30;;
43744;SDS011;29359;53.048;8.732;2023-12-29T04:31:02;6.90;;;1.73;;
43744;SDS011;29359;53.048;8.732;2023-12-29T04:33:05;9.73;;;1.50;;
43744;SDS011;29359;53.048;8.732;2023-12-29T04:35:07;4.53;;;1.30;;
43744;SDS011;29359;53.048;8.732;2023-12-29T04:37:11;6.63;;;1.60;;
43744;SDS011;29359;53.048;8.732;2023-12-29T04:39:13;4.20;;;1.02;;
43744;SDS011;29359;53.048;8.732;2023-12-29T04:41:15;6.10;;;1.10;;
43744;SDS011;29359;53.048;8.732;2023-12-29T04:43:17;6.13;;;1.85;;
43744;SDS011;29359;53.048;8.732;2023-12-29T04:45:18;5.85;;;1.40;;
43744;SDS011;29359;53.048;8.732;2023-12-29T04:47:20;7.05;;;1.02;;
43744;SDS011;29359;53.048;8.732;2023-12-29T04:49:22;5.45;;;1.20;;
43744;SDS011;29359;53.048;8.732;2023-12-29T04:51:24;4.20;;;1.27;;
43744;SDS011;29359;53.048;8.732;2023-12-29T04:53:26;6.35;;;1.45;;
43744;SDS011;29359;53.048;8.732;2023-12-29T04:55:27;5.30;;;1.35;;
43744;SDS011;29359;53.048;8.732;2023-12-29T04:57:29;4.65;;;1.00;;
43744;SDS011;29359;53.048;8.732;2023-12-29T04:59:31;9.10;;;1.30;;
43744;SDS011;29359;53.048;8.732;2023-12-29T05:01:33;2.70;;;0.90;;
43744;SDS011;29359;53.048;8.732;2023-12-29T05:03:35;6.70;;;1.33;;
43744;SDS011;29359;53.048;8.732;2023-12-29T05:05:37;5.15;;;0.90;;
43744;SDS011;29359;53.048;8.732;2023-12-29T05:07:40;6.95;;;1.00;;
43744;SDS011;29359;53.048;8.732;2023-12-29T05:09:42;4.05;;;1.30;;
43744;SDS011;29359;53.048;8.732;2023-12-29T05:11:44;4.95;;;1.70;;
43744;SDS011;29359;53.048;8.732;2023-12-29T05:13:45;4.03;;;1.13;;
43744;SDS011;29359;53.048;8.732;2023-12-29T05:15:47;8.45;;;1.75;;
43744;SDS011;29359;53.048;8.732;2023-12-29T05:17:52;3.65;;;1.17;;
43744;SDS011;29359;53.048;8.732;2023-12-29T05:19:54;11.70;;;1.70;;
43744;SDS011;29359;53.048;8.732;2023-12-29T05:21:55;4.00;;;1.17;;
43744;SDS011;29359;53.048;8.732;2023-12-29T05:23:57;7.25;;;1.23;;
43744;SDS011;29359;53.048;8.732;2023-12-29T05:25:59;5.60;;;1.33;;
43744;SDS011;29359;53.048;8.732;2023-12-29T05:28:01;7.07;;;1.55;;
43744;SDS011;29359;53.048;8.732;2023-12-29T05:30:03;5.25;;;1.25;;
43744;SDS011;29359;53.048;8.732;2023-12-29T05:32:06;4.38;;;1.30;;
43744;SDS011;29359;53.048;8.732;2023-12-29T05:34:08;12.93;;;2.00;;
43744;SDS011;29359;53.048;8.732;2023-12-29T05:36:10;5.32;;;1.27;;
43744;SDS011;29359;53.048;8.732;2023-12-29T05:38:12;7.53;;;1.50;;
43744;SDS011;29359;53.048;8.732;2023-12-29T05:40:14;7.60;;;1.58;;
43744;SDS011;29359;53.048;8.732;2023-12-29T05:42:16;7.40;;;1.80;;
43744;SDS011;29359;53.048;8.732;2023-12-29T05:44:18;5.65;;;1.13;;
43744;SDS011;29359;53.048;8.732;2023-12-29T05:46:20;4.63;;;1.33;;
43744;SDS011;29359;53.048;8.732;2023-12-29T05:48:22;8.57;;;1.42;;
43744;SDS011;29359;53.048;8.732;2023-12-29T05:50:24;4.18;;;0.90;;
43744;SDS011;29359;53.048;8.732;2023-12-29T05:52:25;6.10;;;1.77;;
43744;SDS011;29359;53.048;8.732;2023-12-29T05:54:27;6.95;;;1.80;;
43744;SDS011;29359;53.048;8.732;2023-12-29T05:56:29;10.68;;;2.00;;
43744;SDS011;29359;53.048;8.732;2023-12-29T05:58:31;10.93;;;1.85;;
43744;SDS011;29359;53.048;8.732;2023-12-29T06:00:33;9.20;;;1.52;;
43744;SDS011;29359;53.048;8.732;2023-12-29T06:02:34;8.30;;;1.77;;
43744;SDS011;29359;53.048;8.732;2023-12-29T06:04:36;6.35;;;1.38;;
43744;SDS011;29359;53.048;8.732;2023-12-29T06:06:38;6.30;;;1.65;;
43744;SDS011;29359;53.048;8.732;2023-12-29T06:08:40;8.50;;;1.67;;
43744;SDS011;29359;53.048;8.732;2023-12-29T06:10:42;11.63;;;2.38;;
43744;SDS011;29359;53.048;8.732;2023-12-29T06:12:43;8.65;;;1.75;;
43744;SDS011;29359;53.048;8.732;2023-12-29T06:14:45;8.25;;;2.00;;
43744;SDS011;29359;53.048;8.732;2023-12-29T06:16:47;11.10;;;1.55;;
43744;SDS011;29359;53.048;8.732;2023-12-29T06:18:50;8.65;;;1.80;;
43744;SDS011;29359;53.048;8.732;2023-12-29T06:20:52;12.55;;;2.42;;
43744;SDS011;29359;53.048;8.732;2023-12-29T06:22:55;7.88;;;1.75;;
43744;SDS011;29359;53.048;8.732;2023-12-29T06:24:57;7.60;;;1.33;;
43744;SDS011;29359;53.048;8.732;2023-12-29T06:26:59;6.50;;;1.80;;
43744;SDS011;29359;53.048;8.732;2023-12-29T06:29:01;8.50;;;2.13;;
43744;SDS011;29359;53.048;8.732;2023-12-29T06:31:03;11.50;;;1.67;;
43744;SDS011;29359;53.048;8.732;2023-12-29T06:33:05;6.85;;;1.73;;
43744;SDS011;29359;53.048;8.732;2023-12-29T06:35:07;9.35;;;1.83;;
43744;SDS011;29359;53.048;8.732;2023-12-29T06:37:11;13.75;;;2.30;;
43744;SDS011;29359;53.048;8.732;2023-12-29T06:39:13;10.32;;;2.13;;
43744;SDS011;29359;53.048;8.732;2023-12-29T06:41:15;7.38;;;1.77;;
43744;SDS011;29359;53.048;8.732;2023-12-29T06:43:17;10.57;;;2.20;;
43744;SDS011;29359;53.048;8.732;2023-12-29T06:45:19;11.07;;;2.05;;
43744;SDS011;29359;53.048;8.732;2023-12-29T06:47:20;11.48;;;2.25;;
43744;SDS011;29359;53.048;8.732;2023-12-29T06:49:22;15.70;;;2.70;;
43744;SDS011;29359;53.048;8.732;2023-12-29T06:51:24;12.80;;;2.55;;
43744;SDS011;29359;53.048;8.732;2023-12-29T06:53:26;7.63;;;1.27;;
43744;SDS011;29359;53.048;8.732;2023-12-29T06:55:28;9.55;;;2.17;;
43744;SDS011;29359;53.048;8.732;2023-12-29T06:57:30;13.93;;;1.63;;
43744;SDS011;29359;53.048;8.732;2023-12-29T06:59:32;9.40;;;1.33;;
43744;SDS011;29359;53.048;8.732;2023-12-29T07:01:34;10.07;;;1.48;;
43744;SDS011;29359;53.048;8.732;2023-12-29T07:03:41;14.80;;;1.70;;
43744;SDS011;29359;53.048;8.732;2023-12-29T07:05:43;7.10;;;1.42;;
43744;SDS011;29359;53.048;8.732;2023-12-29T07:07:45;8.95;;;2.20;;
43744;SDS011;29359;53.048;8.732;2023-12-29T07:09:47;10.18;;;1.75;;
43744;SDS011;29359;53.048;8.732;2023-12-29T07:11:50;13.02;;;1.85;;
43744;SDS011;29359;53.048;8.732;2023-12-29T07:13:51;8.70;;;1.42;;
43744;SDS011;29359;53.048;8.732;2023-12-29T07:15:53;7.47;;;1.60;;
43744;SDS011;29359;53.048;8.732;2023-12-29T07:17:56;9.88;;;1.58;;
43744;SDS011;29359;53.048;8.732;2023-12-29T07:19:58;9.30;;;1.63;;
43744;SDS011;29359;53.048;8.732;2023-12-29T07:22:00;12.10;;;2.33;;
43744;SDS011;29359;53.048;8.732;2023-12-29T07:24:02;12.85;;;2.10;;
43744;SDS011;29359;53.048;8.732;2023-12-29T07:26:04;8.25;;;1.60;;
43744;SDS011;29359;53.048;8.732;2023-12-29T07:28:06;6.93;;;1.70;;
43744;SDS011;29359;53.048;8.732;2023-12-29T07:30:08;14.38;;;2.25;;
43744;SDS011;29359;53.048;8.732;2023-12-29T07:32:10;9.25;;;1.83;;
43744;SDS011;29359;53.048;8.732;2023-12-29T07:34:13;13.95;;;2.10;;
43744;SDS011;29359;53.048;8.732;2023-12-29T07:36:15;7.90;;;1.90;;
43744;SDS011;29359;53.048;8.732;2023-12-29T07:38:18;12.10;;;2.47;;
43744;SDS011;29359;53.048;8.732;2023-12-29T07:40:20;9.10;;;1.77;;
43744;SDS011;29359;53.048;8.732;2023-12-29T07:42:22;11.82;;;1.77;;
43744;SDS011;29359;53.048;8.732;2023-12-29T07:44:24;14.20;;;2.40;;
43744;SDS011;29359;53.048;8.732;2023-12-29T07:46:26;11.20;;;2.47;;
43744;SDS011;29359;53.048;8.732;2023-12-29T07:48:28;13.88;;;2.50;;
43744;SDS011;29359;53.048;8.732;2023-12-29T07:50:30;8.20;;;1.98;;
43744;SDS011;29359;53.048;8.732;2023-12-29T07:52:32;11.23;;;2.10;;
43744;SDS011;29359;53.048;8.732;2023-12-29T07:54:34;8.18;;;1.70;;
43744;SDS011;29359;53.048;8.732;2023-12-29T07:56:35;11.50;;;2.10;;
43744;SDS011;29359;53.048;8.732;2023-12-29T07:58:39;8.20;;;1.85;;
43744;SDS011;29359;53.048;8.732;2023-12-29T08:00:42;7.88;;;1.95;;
43744;SDS011;29359;53.048;8.732;2023-12-29T08:02:44;9.25;;;1.92;;
43744;SDS011;29359;53.048;8.732;2023-12-29T08:04:46;10.25;;;1.88;;
43744;SDS011;29359;53.048;8.732;2023-12-29T08:06:50;9.88;;;1.73;;
43744;SDS011;29359;53.048;8.732;2023-12-29T08:08:51;13.05;;;2.55;;
43744;SDS011;29359;53.048;8.732;2023-12-29T08:10:53;15.60;;;2.72;;
43744;SDS011;29359;53.048;8.732;2023-12-29T08:12:55;14.43;;;2.60;;
43744;SDS011;29359;53.048;8.732;2023-12-29T08:14:57;12.48;;;2.58;;
43744;SDS011;29359;53.048;8.732;2023-12-29T08:16:58;12.25;;;3.03;;
43744;SDS011;29359;53.048;8.732;2023-12-29T08:19:00;11.68;;;2.22;;
43744;SDS011;29359;53.048;8.732;2023-12-29T08:21:02;13.40;;;2.42;;
43744;SDS011;29359;53.048;8.732;2023-12-29T08:23:04;13.15;;;2.85;;
43744;SDS011;29359;53.048;8.732;2023-12-29T08:25:06;11.48;;;1.77;;
43744;SDS011;29359;53.048;8.732;2023-12-29T08:27:08;10.55;;;1.70;;
43744;SDS011;29359;53.048;8.732;2023-12-29T08:29:10;12.88;;;3.17;;
43744;SDS011;29359;53.048;8.732;2023-12-29T08:31:11;12.85;;;2.72;;
43744;SDS011;29359;53.048;8.732;2023-12-29T08:33:14;14.75;;;2.55;;
43744;SDS011;29359;53.048;8.732;2023-12-29T08:35:16;12.52;;;2.35;;
43744;SDS011;29359;53.048;8.732;2023-12-29T08:37:18;11.57;;;2.08;;
43744;SDS011;29359;53.048;8.732;2023-12-29T08:39:22;17.13;;;2.35;;
43744;SDS011;29359;53.048;8.732;2023-12-29T08:41:24;12.55;;;2.22;;
43744;SDS011;29359;53.048;8.732;2023-12-29T08:43:26;8.88;;;1.67;;
43744;SDS011;29359;53.048;8.732;2023-12-29T08:45:28;10.63;;;1.38;;
43744;SDS011;29359;53.048;8.732;2023-12-29T08:47:30;5.78;;;1.65;;
43744;SDS011;29359;53.048;8.732;2023-12-29T08:49:31;6.38;;;1.52;;
43744;SDS011;29359;53.048;8.732;2023-12-29T08:51:33;4.35;;;1.02;;
43744;SDS011;29359;53.048;8.732;2023-12-29T08:53:35;3.80;;;0.80;;
43744;SDS011;29359;53.048;8.732;2023-12-29T08:55:37;5.32;;;1.00;;
43744;SDS011;29359;53.048;8.732;2023-12-29T08:57:39;5.40;;;0.90;;
43744;SDS011;29359;53.048;8.732;2023-12-29T08:59:41;10.27;;;0.80;;
43744;SDS011;29359;53.048;8.732;2023-12-29T09:01:43;3.92;;;0.80;;
43744;SDS011;29359;53.048;8.732;2023-12-29T09:03:45;2.22;;;0.63;;
43744;SDS011;29359;53.048;8.732;2023-12-29T09:05:47;2.15;;;0.75;;
43744;SDS011;29359;53.048;8.732;2023-12-29T09:07:49;4.85;;;0.80;;
43744;SDS011;29359;53.048;8.732;2023-12-29T09:09:50;3.03;;;0.60;;
43744;SDS011;29359;53.048;8.732;2023-12-29T09:11:52;1.90;;;0.60;;
43744;SDS011;29359;53.048;8.732;2023-12-29T09:13:54;6.35;;;0.80;;
43744;SDS011;29359;53.048;8.732;2023-12-29T09:15:56;2.00;;;0.75;;
43744;SDS011;29359;53.048;8.732;2023-12-29T09:17:59;2.72;;;1.33;;
43744;SDS011;29359;53.048;8.732;2023-12-29T09:20:01;10.70;;;1.10;;
43744;SDS011;29359;53.048;8.732;2023-12-29T09:22:11;4.55;;;1.20;;
43744;SDS011;29359;53.048;8.732;2023-12-29T09:24:13;7.88;;;1.75;;
43744;SDS011;29359;53.048;8.732;2023-12-29T09:26:15;9.38;;;1.65;;
43744;SDS011;29359;53.048;8.732;2023-12-29T09:28:16;6.75;;;1.35;;
43744;SDS011;29359;53.048;8.732;2023-12-29T09:30:18;9.10;;;1.20;;
43744;SDS011;29359;53.048;8.732;2023-12-29T09:32:20;6.28;;;0.80;;
43744;SDS011;29359;53.048;8.732;2023-12-29T09:34:22;4.13;;;0.93;;
43744;SDS011;29359;53.048;8.732;2023-12-29T09:36:24;2.00;;;0.63;;
43744;SDS011;29359;53.048;8.732;2023-12-29T09:38:25;3.55;;;0.88;;
43744;SDS011;29359;53.048;8.732;2023-12-29T09:40:27;6.75;;;1.10;;
43744;SDS011;29359;53.048;8.732;2023-12-29T09:42:29;4.97;;;1.52;;
43744;SDS011;29359;53.048;8.732;2023-12-29T09:44:32;5.30;;;1.17;;
43744;SDS011;29359;53.048;8.732;2023-12-29T09:46:37;5.03;;;1.20;;
43744;SDS011;29359;53.048;8.732;2023-12-29T09:48:44;3.95;;;1.20;;
43744;SDS011;29359;53.048;8.732;2023-12-29T09:50:49;7.65;;;1.10;;
43744;SDS011;29359;53.048;8.732;2023-12-29T09:52:51;6.65;;;1.20;;
43744;SDS011;29359;53.048;8.732;2023-12-29T09:54:54;5.78;;;1.55;;
43744;SDS011;29359;53.048;8.732;2023-12-29T09:56:56;8.98;;;1.52;;
43744;SDS011;29359;53.048;8.732;2023-12-29T09:58:59;9.23;;;1.80;;
43744;SDS011;29359;53.048;8.732;2023-12-29T10:01:04;7.18;;;1.50;;
43744;SDS011;29359;53.048;8.732;2023-12-29T10:03:06;9.60;;;1.38;;
43744;SDS011;29359;53.048;8.732;2023-12-29T10:05:10;3.13;;;1.25;;
43744;SDS011;29359;53.048;8.732;2023-12-29T10:07:18;7.60;;;1.40;;
43744;SDS011;29359;53.048;8.732;2023-12-29T10:09:26;7.88;;;1.77;;
43744;SDS011;29359;53.048;8.732;2023-12-29T10:11:29;14.23;;;1.48;;
43744;SDS011;29359;53.048;8.732;2023-12-29T10:13:36;7.13;;;1.20;;
43744;SDS011;29359;53.048;8.732;2023-12-29T10:22:18;6.88;;;0.90;;
43744;SDS011;29359;53.048;8.732;2023-12-29T10:24:26;7.50;;;1.40;;
43744;SDS011;29359;53.048;8.732;2023-12-29T10:26:28;4.43;;;0.93;;
43744;SDS011;29359;53.048;8.732;2023-12-29T10:28:29;4.53;;;0.70;;
43744;SDS011;29359;53.048;8.732;2023-12-29T10:30:31;2.83;;;0.63;;
43744;SDS011;29359;53.048;8.732;2023-12-29T10:32:36;1.88;;;0.50;;
43744;SDS011;29359;53.048;8.732;2023-12-29T10:34:38;1.98;;;0.50;;
43744;SDS011;29359;53.048;8.732;2023-12-29T10:36:46;4.00;;;0.55;;
43744;SDS011;29359;53.048;8.732;2023-12-29T10:38:50;3.08;;;0.63;;
43744;SDS011;29359;53.048;8.732;2023-12-29T10:43:24;4.05;;;0.70;;
43744;SDS011;29359;53.048;8.732;2023-12-29T10:45:25;6.57;;;0.85;;
43744;SDS011;29359;53.048;8.732;2023-12-29T10:47:27;4.45;;;1.10;;
43744;SDS011;29359;53.048;8.732;2023-12-29T10:49:29;3.92;;;1.23;;
43744;SDS011;29359;53.048;8.732;2023-12-29T10:51:31;2.95;;;0.95;;
43744;SDS011;29359;53.048;8.732;2023-12-29T10:53:33;2.90;;;1.23;;
43744;SDS011;29359;53.048;8.732;2023-12-29T10:55:41;4.55;;;0.70;;
43744;SDS011;29359;53.048;8.732;2023-12-29T10:57:43;4.25;;;0.70;;
43744;SDS011;29359;53.048;8.732;2023-12-29T10:59:48;3.92;;;0.80;;
43744;SDS011;29359;53.048;8.732;2023-12-29T11:01:56;6.15;;;1.15;;
43744;SDS011;29359;53.048;8.732;2023-12-29T11:03:58;6.93;;;1.08;;
43744;SDS011;29359;53.048;8.732;2023-12-29T11:06:05;6.57;;;1.40;;
43744;SDS011;29359;53.048;8.732;2023-12-29T11:08:14;2.78;;;1.00;;
43744;SDS011;29359;53.048;8.732;2023-12-29T11:10:17;6.28;;;1.20;;
43744;SDS011;29359;53.048;8.732;2023-12-29T11:12:19;5.93;;;1.50;;
43744;SDS011;29359;53.048;8.732;2023-12-29T11:14:21;3.83;;;1.02;;
43744;SDS011;29359;53.048;8.732;2023-12-29T11:16:23;5.13;;;1.23;;
43744;SDS011;29359;53.048;8.732;2023-12-29T11:18:26;8.00;;;1.55;;
43744;SDS011;29359;53.048;8.732;2023-12-29T11:20:31;5.60;;;1.75;;
43744;SDS011;29359;53.048;8.732;2023-12-29T11:22:35;3.78;;;1.50;;
43744;SDS011;29359;53.048;8.732;2023-12-29T11:24:37;4.10;;;1.67;;
43744;SDS011;29359;53.048;8.732;2023-12-29T11:26:44;4.10;;;1.90;;
43744;SDS011;29359;53.048;8.732;2023-12-29T11:28:46;9.65;;;1.55;;
43744;SDS011;29359;53.048;8.732;2023-12-29T11:30:50;5.88;;;1.25;;
43744;SDS011;29359;53.048;8.732;2023-12-29T11:32:57;2.80;;;1.23;;
43744;SDS011;29359;53.048;8.732;2023-12-29T11:35:10;2.65;;;0.82;;
43744;SDS011;29359;53.048;8.732;2023-12-29T11:39:52;2.63;;;1.00;;
43744;SDS011;29359;53.048;8.732;2023-12-29T11:42:05;2.78;;;0.68;;
43744;SDS011;29359;53.048;8.732;2023-12-29T11:44:28;6.55;;;1.02;;
43744;SDS011;29359;53.048;8.732;2023-12-29T11:46:43;4.35;;;0.60;;
43744;SDS011;29359;53.048;8.732;2023-12-29T11:48:55;2.03;;;0.63;;
43744;SDS011;29359;53.048;8.732;2023-12-29T11:50:59;4.10;;;0.60;;
43744;SDS011;29359;53.048;8.732;2023-12-29T11:53:00;2.75;;;0.65;;
43744;SDS011;29359;53.048;8.732;2023-12-29T11:55:09;2.85;;;0.82;;
43744;SDS011;29359;53.048;8.732;2023-12-29T11:57:12;1.58;;;0.60;;
43744;SDS011;29359;53.048;8.732;2023-12-29T11:59:14;2.78;;;0.60;;
43744;SDS011;29359;53.048;8.732;2023-12-29T12:01:33;2.50;;;0.50;;
43744;SDS011;29359;53.048;8.732;2023-12-29T12:03:37;5.63;;;1.77;;
43744;SDS011;29359;53.048;8.732;2023-12-29T12:05:46;2.13;;;0.40;;
43744;SDS011;29359;53.048;8.732;2023-12-29T12:12:38;1.60;;;0.40;;
43744;SDS011;29359;53.048;8.732;2023-12-29T12:14:46;6.72;;;0.75;;
43744;SDS011;29359;53.048;8.732;2023-12-29T12:16:52;1.35;;;0.35;;
43744;SDS011;29359;53.048;8.732;2023-12-29T12:18:55;3.03;;;0.50;;
43744;SDS011;29359;53.048;8.732;2023-12-29T12:20:57;2.63;;;0.60;;
43744;SDS011;29359;53.048;8.732;2023-12-29T12:23:19;2.88;;;0.70;;
43744;SDS011;29359;53.048;8.732;2023-12-29T12:25:21;5.85;;;0.68;;
43744;SDS011;29359;53.048;8.732;2023-12-29T12:27:25;7.53;;;0.85;;
43744;SDS011;29359;53.048;8.732;2023-12-29T12:29:27;2.60;;;0.57;;
43744;SDS011;29359;53.048;8.732;2023-12-29T12:31:30;6.97;;;0.70;;
43744;SDS011;29359;53.048;8.732;2023-12-29T12:33:32;2.33;;;0.50;;
43744;SDS011;29359;53.048;8.732;2023-12-29T12:35:34;1.85;;;0.73;;